Time;durP1;ratioP1;P1;durP2;ratioP2;P2;SDS_P1;SDS_P2;PMS_P1;PMS_P2;Temp;Humidity;BMP_temperature;BMP_pressure;BME280_temperature;BME280_humidity;BME280_pressure;Samples;Min_cycle;Max_cycle;Signal;HPM_P1;HPM_P2
2021/06/13 00:01:47;;;;;;;;;;;18.00;99.40;;;;;;5078891;28;20039;-87
2021/06/13 00:04:15;;;;;;;10.15;8.25;;;18.00;99.90;;;;;;5078030;28;19904;-87
2021/06/13 00:06:43;;;;;;;15.95;10.15;;;17.90;99.50;;;;;;5078358;28;20024;-87
2021/06/13 00:09:30;;;;;;;15.20;10.23;;;17.90;99.70;;;;;;5078489;28;20086;-87
2021/06/13 00:11:56;;;;;;;13.90;10.75;;;17.90;99.80;;;;;;5078162;28;20031;-86
2021/06/13 00:14:22;;;;;;;11.30;8.82;;;17.80;99.90;;;;;;5078256;28;20020;-87
2021/06/13 00:16:52;;;;;;;11.40;8.98;;;17.80;99.90;;;;;;5078118;28;20081;-87
2021/06/13 00:19:19;;;;;;;12.07;9.60;;;17.80;99.90;;;;;;5096017;28;20099;-87
2021/06/13 00:21:48;;;;;;;14.27;10.32;;;17.80;99.90;;;;;;5078059;28;20111;-86
2021/06/13 00:24:21;;;;;;;11.18;9.02;;;17.80;99.90;;;;;;5096068;28;20465;-87
2021/06/13 00:26:50;;;;;;;10.70;8.25;;;17.70;99.90;;;;;;5079055;28;20032;-87
2021/06/13 00:29:16;;;;;;;16.17;10.07;;;17.70;99.90;;;;;;5077903;28;20048;-87
2021/06/13 00:31:49;;;;;;;17.73;10.43;;;17.70;99.90;;;;;;5096370;28;20035;-87
2021/06/13 00:34:15;;;;;;;13.93;10.10;;;17.70;99.90;;;;;;5061233;28;20760;-87
2021/06/13 00:36:41;;;;;;;12.95;9.90;;;17.60;99.90;;;;;;5077966;28;20025;-87
2021/06/13 00:39:08;;;;;;;11.30;8.40;;;17.60;99.90;;;;;;5076959;28;20050;-87
2021/06/13 00:41:34;;;;;;;15.48;9.32;;;17.60;99.90;;;;;;5096099;28;20498;-87
2021/06/13 00:44:00;;;;;;;10.40;8.93;;;17.60;99.90;;;;;;5095712;28;20024;-87
2021/06/13 00:46:25;;;;;;;10.45;8.55;;;17.60;99.90;;;;;;5077254;28;20055;-87
2021/06/13 00:48:51;;;;;;;13.68;10.05;;;17.60;99.90;;;;;;5077887;28;20036;-87
2021/06/13 00:51:17;;;;;;;11.05;8.23;;;17.50;99.90;;;;;;5077335;28;20377;-87
2021/06/13 00:53:46;;;;;;;12.25;9.70;;;17.50;99.90;;;;;;5077475;28;20048;-87
2021/06/13 00:56:13;;;;;;;13.32;8.52;;;17.50;99.90;;;;;;5061391;28;20170;-87
2021/06/13 00:58:39;;;;;;;14.75;8.57;;;17.50;99.90;;;;;;5095613;28;20028;-87
2021/06/13 01:01:04;;;;;;;10.43;8.35;;;17.50;99.90;;;;;;5077476;28;20058;-87
2021/06/13 01:03:30;;;;;;;11.70;8.27;;;17.50;99.90;;;;;;5077174;28;20067;-86
2021/06/13 01:05:57;;;;;;;9.32;8.20;;;17.40;99.90;;;;;;5077522;28;20028;-87
2021/06/13 01:08:35;;;;;;;8.90;7.60;;;17.40;99.90;;;;;;5077538;28;20419;-87
2021/06/13 01:11:38;;;;;;;8.82;7.38;;;17.40;99.90;;;;;;5095379;28;20111;-87
2021/06/13 01:14:27;;;;;;;10.68;7.60;;;17.40;99.90;;;;;;5077205;28;20057;-87
2021/06/13 01:17:01;;;;;;;8.65;6.78;;;17.40;99.90;;;;;;5094754;28;20020;-87
2021/06/13 01:20:07;;;;;;;11.07;8.45;;;17.30;99.90;;;;;;5076280;28;20633;-87
2021/06/13 01:23:04;;;;;;;8.95;7.35;;;17.30;99.90;;;;;;5095662;28;20415;-87
2021/06/13 01:25:49;;;;;;;9.60;7.28;;;17.30;99.90;;;;;;5094140;28;20032;-87
2021/06/13 01:28:42;;;;;;;8.00;6.80;;;17.30;99.90;;;;;;5095254;28;20040;-87
2021/06/13 01:31:09;;;;;;;11.05;7.43;;;17.30;99.90;;;;;;5076806;28;20590;-87
2021/06/13 01:33:38;;;;;;;9.35;7.45;;;17.30;99.90;;;;;;5094655;28;20020;-87
2021/06/13 01:36:06;;;;;;;12.68;7.97;;;17.30;99.90;;;;;;5095001;28;20031;-86
2021/06/13 01:38:34;;;;;;;8.73;7.70;;;17.20;99.90;;;;;;5076627;28;20016;-87
2021/06/13 01:41:01;;;;;;;13.98;7.97;;;17.20;99.90;;;;;;5076913;28;20038;-87
2021/06/13 01:43:29;;;;;;;10.00;8.07;;;17.20;99.90;;;;;;5094800;28;20058;-87
2021/06/13 01:45:58;;;;;;;10.48;7.80;;;17.10;99.90;;;;;;5094313;28;20034;-88
2021/06/13 01:48:25;;;;;;;9.23;7.70;;;17.20;99.90;;;;;;5095049;28;20028;-88
2021/06/13 01:50:52;;;;;;;8.52;7.13;;;17.10;99.90;;;;;;5093124;28;20077;-87
2021/06/13 01:53:26;;;;;;;10.25;7.53;;;17.20;99.90;;;;;;5093511;28;20020;-87
2021/06/13 01:55:53;;;;;;;10.05;7.97;;;17.20;99.90;;;;;;5093724;28;20016;-87
2021/06/13 01:58:20;;;;;;;10.45;8.02;;;17.20;99.90;;;;;;5076795;28;20024;-87
2021/06/13 02:00:48;;;;;;;9.68;7.50;;;17.20;99.90;;;;;;5094912;28;20503;-87
2021/06/13 02:03:17;;;;;;;7.97;7.07;;;17.20;99.90;;;;;;5076694;28;20565;-87
2021/06/13 02:05:49;;;;;;;8.25;7.03;;;17.20;99.90;;;;;;5093575;28;20512;-87
2021/06/13 02:08:16;;;;;;;10.57;7.25;;;17.20;99.90;;;;;;5093596;28;20122;-88
2021/06/13 02:10:46;;;;;;;7.57;6.45;;;17.20;99.90;;;;;;5076618;28;20028;-88
2021/06/13 02:13:14;;;;;;;6.95;6.25;;;17.20;99.90;;;;;;5094989;28;20542;-88
2021/06/13 02:15:49;;;;;;;9.45;6.50;;;17.20;99.90;;;;;;5091717;28;20120;-87
2021/06/13 02:18:18;;;;;;;8.50;6.45;;;17.20;99.90;;;;;;5094490;28;20043;-88
2021/06/13 02:20:44;;;;;;;7.80;6.40;;;17.20;99.90;;;;;;5093275;28;20028;-87
2021/06/13 02:23:10;;;;;;;7.70;6.32;;;17.20;99.90;;;;;;5093056;28;20526;-88
2021/06/13 02:25:44;;;;;;;7.60;6.80;;;17.30;99.90;;;;;;5091987;28;20093;-88
2021/06/13 02:28:11;;;;;;;7.95;6.70;;;17.30;99.90;;;;;;5095441;28;20504;-88
2021/06/13 02:30:46;;;;;;;7.45;6.40;;;17.30;99.90;;;;;;5079109;28;20031;-88
2021/06/13 02:33:14;;;;;;;9.30;7.07;;;17.30;99.90;;;;;;5096592;28;20020;-88
2021/06/13 02:35:44;;;;;;;11.90;7.97;;;17.30;99.90;;;;;;5114671;28;20016;-88
2021/06/13 02:38:13;;;;;;;10.35;7.70;;;17.30;99.90;;;;;;5096545;28;20051;-88
2021/06/13 02:40:42;;;;;;;10.93;7.72;;;17.20;99.90;;;;;;5114625;28;20106;-88
2021/06/13 02:43:08;;;;;;;10.57;7.95;;;17.30;99.90;;;;;;5080040;28;20036;-88
2021/06/13 02:45:35;;;;;;;11.90;7.85;;;17.30;99.90;;;;;;5080903;28;20020;-89
2021/06/13 02:48:07;;;;;;;11.80;8.75;;;17.30;99.90;;;;;;5059895;28;20179;-88
2021/06/13 02:50:34;;;;;;;9.90;8.90;;;17.20;99.90;;;;;;5076824;28;20026;-88
2021/06/13 02:53:42;;;;;;;11.60;9.00;;;17.20;99.90;;;;;;5076127;28;20024;-88
2021/06/13 02:56:12;;;;;;;12.40;8.85;;;17.20;99.90;;;;;;5076436;28;20440;-88
2021/06/13 02:58:43;;;;;;;;;;;17.20;99.90;;;;;;5094767;28;20085;-87
2021/06/13 03:01:12;;;;;;;;;;;17.20;99.90;;;;;;5076623;28;19934;-89
2021/06/13 03:03:44;;;;;;;8.93;7.72;;;17.20;99.90;;;;;;5093926;28;19950;-88
2021/06/13 03:06:16;;;;;;;12.90;9.77;;;17.20;99.90;;;;;;5060095;28;20495;-88
2021/06/13 03:08:51;;;;;;;11.63;8.70;;;17.30;99.90;;;;;;5059821;28;20425;-88
2021/06/13 03:11:22;;;;;;;11.98;8.50;;;17.30;99.90;;;;;;5075887;28;20035;-88
2021/06/13 03:13:50;;;;;;;11.80;8.65;;;17.40;99.90;;;;;;5084889;28;20051;-88
2021/06/13 03:16:25;;;;;;;9.40;8.40;;;17.40;99.90;;;;;;5079585;28;20111;-88
2021/06/13 03:19:08;;;;;;;10.25;8.63;;;17.40;99.90;;;;;;5114526;28;20058;-88
2021/06/13 03:21:35;;;;;;;9.30;8.30;;;17.40;99.90;;;;;;5079192;28;20040;-88
2021/06/13 03:24:00;;;;;;;9.98;8.07;;;17.50;99.90;;;;;;5096175;28;20110;-88
2021/06/13 03:26:29;;;;;;;10.93;8.82;;;17.60;99.90;;;;;;5079571;28;20081;-88
2021/06/13 03:29:00;;;;;;;10.75;8.35;;;17.60;99.90;;;;;;5096501;28;20058;-89
2021/06/13 03:31:26;;;;;;;10.68;8.52;;;17.70;99.90;;;;;;5095898;28;20084;-89
2021/06/13 03:34:13;;;;;;;10.68;8.23;;;17.70;99.90;;;;;;5114708;28;20099;-88
2021/06/13 03:36:41;;;;;;;9.90;7.85;;;17.70;99.90;;;;;;5096128;28;20020;-90
2021/06/13 03:39:07;;;;;;;9.90;8.00;;;17.80;99.90;;;;;;5096283;28;20023;-91
2021/06/13 03:41:39;;;;;;;8.48;7.50;;;17.90;99.90;;;;;;5114306;28;20097;-89
2021/06/13 03:44:11;;;;;;;11.38;7.03;;;17.90;99.90;;;;;;5076307;28;20074;-87
2021/06/13 03:46:40;;;;;;;10.02;7.25;;;18.00;99.90;;;;;;5059496;28;20032;-91
2021/06/13 03:49:07;;;;;;;10.65;6.85;;;18.00;99.80;;;;;;5075542;28;20040;-91
2021/06/13 03:51:33;;;;;;;9.15;6.88;;;18.10;99.70;;;;;;5075868;28;20024;-91
2021/06/13 03:54:00;;;;;;;10.35;7.35;;;18.20;99.60;;;;;;5059409;28;20042;-90
2021/06/13 03:56:38;;;;;;;8.30;7.00;;;18.20;99.40;;;;;;5059200;28;20519;-91
2021/06/13 03:59:05;;;;;;;8.50;6.88;;;18.20;99.20;;;;;;5075842;28;20123;-93
2021/06/13 04:01:32;;;;;;;8.38;5.85;;;18.30;99.30;;;;;;5075834;28;20028;-91
2021/06/13 04:03:59;;;;;;;9.07;6.97;;;18.40;99.20;;;;;;5059203;28;20469;-93
2021/06/13 04:06:37;;;;;;;8.13;6.57;;;18.40;99.10;;;;;;5076300;28;20031;-91
2021/06/13 04:09:17;;;;;;;7.57;6.22;;;18.50;99.10;;;;;;5075970;28;20051;-90
2021/06/13 04:11:53;;;;;;;7.32;6.40;;;18.50;99.00;;;;;;5073502;28;20123;-92
2021/06/13 04:14:29;;;;;;;7.80;6.00;;;18.60;98.90;;;;;;5076114;28;20039;-91
2021/06/13 04:17:02;;;;;;;8.57;6.70;;;18.70;98.80;;;;;;5079503;28;20427;-91
2021/06/13 04:19:30;;;;;;;7.30;5.13;;;18.70;98.70;;;;;;5079267;28;20454;-91
2021/06/13 04:22:01;;;;;;;6.97;6.30;;;18.80;98.60;;;;;;5079203;28;20039;-90
2021/06/13 04:24:29;;;;;;;6.70;6.00;;;18.90;98.40;;;;;;5089501;28;20169;-91
2021/06/13 04:26:57;;;;;;;8.93;6.13;;;19.00;98.60;;;;;;5099603;28;20477;-95
2021/06/13 04:29:23;;;;;;;6.38;5.43;;;19.10;98.30;;;;;;5099337;28;20435;-93
2021/06/13 04:31:52;;;;;;;6.65;5.28;;;19.20;98.20;;;;;;5098859;28;20039;-93
2021/06/13 04:34:20;;;;;;;8.07;5.38;;;19.30;98.10;;;;;;5082455;28;20019;-93
2021/06/13 04:36:45;;;;;;;5.55;5.03;;;19.40;97.80;;;;;;5083983;28;20026;-93
2021/06/13 04:39:15;;;;;;;5.35;4.57;;;19.60;97.80;;;;;;5085666;28;20380;-93
2021/06/13 04:41:43;;;;;;;9.10;4.83;;;19.60;97.70;;;;;;5101143;28;20114;-96
2021/06/13 04:44:11;;;;;;;6.82;5.25;;;19.70;97.50;;;;;;5101671;28;20264;-96
2021/06/13 04:46:39;;;;;;;5.63;5.03;;;19.90;97.20;;;;;;5105619;28;20054;-95
2021/06/13 04:49:09;;;;;;;5.75;4.80;;;19.90;97.00;;;;;;5089978;28;20028;-96
2021/06/13 04:51:38;;;;;;;6.68;5.03;;;20.00;96.80;;;;;;5100997;28;20027;-94
2021/06/13 04:54:16;;;;;;;5.27;4.77;;;20.10;96.80;;;;;;5104622;28;20052;-96
2021/06/13 04:56:45;;;;;;;6.93;5.30;;;20.20;96.50;;;;;;5086007;28;20020;-96
2021/06/13 04:59:10;;;;;;;6.10;5.50;;;20.20;96.30;;;;;;5105226;28;20020;-95
2021/06/13 05:01:42;;;;;;;7.55;6.00;;;20.40;96.30;;;;;;5103721;28;20031;-94
2021/06/13 05:04:13;;;;;;;8.10;5.47;;;20.40;96.20;;;;;;5085043;28;20080;-96
2021/06/13 05:06:47;;;;;;;5.05;4.55;;;20.50;96.10;;;;;;5101513;28;20028;-95
2021/06/13 05:09:18;;;;;;;5.30;4.53;;;20.60;95.90;;;;;;5102049;28;20385;-96
2021/06/13 05:11:44;;;;;;;4.90;4.50;;;20.70;95.90;;;;;;5102628;28;20095;-96
2021/06/13 05:14:10;;;;;;;6.82;4.78;;;20.70;95.90;;;;;;5078989;28;20055;-94
2021/06/13 05:16:41;;;;;;;6.43;5.43;;;20.80;95.90;;;;;;5079675;28;20069;-96
2021/06/13 05:19:09;;;;;;;5.95;4.78;;;20.90;95.90;;;;;;5097751;28;20461;-95
2021/06/13 05:21:35;;;;;;;6.07;4.60;;;21.00;95.90;;;;;;5096044;28;20036;-95
2021/06/13 05:24:01;;;;;;;5.05;4.65;;;21.00;95.80;;;;;;5099980;28;20089;-93
2021/06/13 05:26:30;;;;;;;5.18;4.65;;;21.10;95.50;;;;;;5079256;28;20057;-94
2021/06/13 05:28:58;;;;;;;5.50;5.00;;;21.20;95.50;;;;;;5096126;28;20505;-96
2021/06/13 05:31:24;;;;;;;8.45;5.07;;;21.20;95.50;;;;;;5095316;28;20272;-96
2021/06/13 05:33:57;;;;;;;5.30;4.80;;;21.20;95.60;;;;;;5096267;28;20031;-95
2021/06/13 05:36:25;;;;;;;5.72;5.07;;;21.30;95.50;;;;;;5098461;28;20027;-96
2021/06/13 05:39:03;;;;;;;6.90;5.28;;;21.40;95.50;;;;;;5079447;28;20477;-93
2021/06/13 05:41:33;;;;;;;6.78;5.15;;;21.40;95.70;;;;;;5080692;28;20042;-96
2021/06/13 05:44:04;;;;;;;7.65;5.63;;;21.50;95.40;;;;;;5095565;28;20024;-96
2021/06/13 05:46:32;;;;;;;6.45;5.40;;;21.60;95.40;;;;;;5096351;28;20028;-94
2021/06/13 05:48:59;;;;;;;5.72;4.65;;;21.60;95.60;;;;;;5095663;28;20036;-95
2021/06/13 05:51:35;;;;;;;5.00;4.50;;;21.70;95.40;;;;;;5094664;28;20032;-93
2021/06/13 05:54:13;;;;;;;6.43;4.80;;;21.80;95.40;;;;;;5097379;28;20016;-95
2021/06/13 05:56:41;;;;;;;9.82;5.65;;;21.90;95.10;;;;;;5079505;28;20389;-95
2021/06/13 05:59:07;;;;;;;6.25;5.63;;;22.00;94.90;;;;;;5097867;28;20024;-95
2021/06/13 06:01:38;;;;;;;5.53;5.03;;;22.00;95.00;;;;;;5098468;28;20024;-96
2021/06/13 06:04:04;;;;;;;6.10;4.63;;;22.10;95.00;;;;;;5096223;28;20047;-96
2021/06/13 06:06:29;;;;;;;6.95;5.13;;;22.20;94.70;;;;;;5062953;28;20032;-93
2021/06/13 06:08:55;;;;;;;5.22;4.78;;;22.30;94.20;;;;;;5096901;28;20020;-95
2021/06/13 06:11:24;;;;;;;6.30;4.80;;;22.40;93.90;;;;;;5076506;28;20428;-94
2021/06/13 06:13:53;;;;;;;6.65;4.97;;;22.50;94.30;;;;;;5095011;28;20016;-93
2021/06/13 06:16:39;;;;;;;6.07;5.15;;;22.50;94.40;;;;;;5094508;28;20480;-87
2021/06/13 06:19:06;;;;;;;14.10;11.02;;;22.60;94.20;;;;;;5094351;28;20473;-86
2021/06/13 06:21:31;;;;;;;6.13;5.35;;;22.60;94.00;;;;;;5093238;28;20073;-86
2021/06/13 06:23:59;;;;;;;4.70;4.30;;;22.70;94.00;;;;;;5094363;28;20107;-90
2021/06/13 06:26:32;;;;;;;5.68;4.18;;;22.70;93.80;;;;;;5094645;28;20031;-87
2021/06/13 06:29:03;;;;;;;6.15;4.43;;;22.80;93.40;;;;;;5103762;28;20481;-86
2021/06/13 06:31:37;;;;;;;4.88;4.40;;;22.90;93.10;;;;;;5096243;28;20031;-86
2021/06/13 06:34:05;;;;;;;5.07;4.65;;;22.90;92.90;;;;;;5080478;28;20028;-87
2021/06/13 06:36:33;;;;;;;4.80;4.28;;;22.90;93.30;;;;;;5114433;28;20024;-87
2021/06/13 06:38:59;;;;;;;6.70;5.07;;;23.00;93.50;;;;;;5079314;28;20027;-87
2021/06/13 06:41:30;;;;;;;11.02;5.20;;;23.00;93.50;;;;;;5081457;28;20032;-86
2021/06/13 06:43:58;;;;;;;7.55;4.80;;;23.10;93.60;;;;;;5076318;28;20027;-88
2021/06/13 06:46:31;;;;;;;5.55;4.82;;;23.10;93.50;;;;;;5059618;28;20035;-87
2021/06/13 06:48:58;;;;;;;5.57;4.80;;;23.20;93.20;;;;;;5075816;28;20028;-87
2021/06/13 06:51:36;;;;;;;8.63;4.95;;;23.30;93.40;;;;;;5075946;28;20142;-87
2021/06/13 06:54:02;;;;;;;5.20;4.57;;;23.40;93.10;;;;;;5094308;28;20369;-87
2021/06/13 06:56:32;;;;;;;7.20;4.55;;;23.50;92.80;;;;;;5075820;28;20031;-87
2021/06/13 06:58:58;;;;;;;7.25;5.10;;;23.60;92.70;;;;;;5093415;28;20020;-85
2021/06/13 07:01:24;;;;;;;5.47;4.53;;;23.60;92.70;;;;;;5093556;28;20039;-87
2021/06/13 07:03:56;;;;;;;5.07;4.13;;;23.70;92.90;;;;;;5093929;28;20631;-87
2021/06/13 07:06:32;;;;;;;4.60;4.20;;;23.70;92.30;;;;;;5093638;28;20020;-85
2021/06/13 07:09:00;;;;;;;4.97;4.20;;;23.80;92.10;;;;;;5075851;28;20404;-90
2021/06/13 07:11:26;;;;;;;4.82;4.40;;;23.80;92.10;;;;;;5093767;28;20024;-88
2021/06/13 07:13:54;;;;;;;6.25;4.40;;;24.00;91.80;;;;;;5093675;28;20016;-87
2021/06/13 07:16:30;;;;;;;5.60;4.57;;;24.00;91.70;;;;;;5094301;28;20024;-88
2021/06/13 07:19:01;;;;;;;5.80;4.10;;;24.10;91.80;;;;;;5075756;28;20016;-86
2021/06/13 07:21:27;;;;;;;10.35;6.88;;;24.20;91.30;;;;;;5077693;28;20028;-94
2021/06/13 07:23:53;;;;;;;4.97;4.00;;;24.20;90.60;;;;;;5081725;28;20556;-96
2021/06/13 07:26:27;;;;;;;4.13;3.72;;;24.30;90.30;;;;;;5085204;28;20174;-96
2021/06/13 07:29:01;;;;;;;7.75;4.38;;;24.30;90.30;;;;;;5099636;28;20490;-96
2021/06/13 07:31:36;;;;;;;7.05;5.15;;;24.50;90.20;;;;;;5078493;28;20130;-93
2021/06/13 07:34:02;;;;;;;5.55;4.28;;;24.60;89.40;;;;;;5077542;28;20113;-92
2021/06/13 07:36:27;;;;;;;8.23;5.80;;;24.60;87.50;;;;;;5076258;28;20059;-86
2021/06/13 07:38:58;;;;;;;10.20;6.65;;;24.60;88.00;;;;;;5075514;28;20027;-88
2021/06/13 07:41:25;;;;;;;10.90;5.90;;;24.70;88.10;;;;;;5075472;28;20469;-87
2021/06/13 07:43:54;;;;;;;6.20;4.60;;;24.80;88.00;;;;;;5093496;28;20109;-88
2021/06/13 07:46:24;;;;;;;3.97;3.63;;;24.80;87.30;;;;;;5075575;28;20032;-89
2021/06/13 07:48:49;;;;;;;4.43;4.03;;;24.90;86.90;;;;;;5075383;28;20032;-88
2021/06/13 07:51:18;;;;;;;4.95;3.72;;;25.00;86.50;;;;;;5097090;28;20462;-87
2021/06/13 07:53:46;;;;;;;4.15;3.38;;;25.00;86.40;;;;;;5097447;28;20048;-87
2021/06/13 07:56:13;;;;;;;3.80;3.50;;;25.00;85.60;;;;;;5063045;28;20031;-88
2021/06/13 07:58:50;;;;;;;20.77;3.90;;;25.00;84.90;;;;;;5079352;28;20469;-90
2021/06/13 08:01:18;;;;;;;5.53;3.63;;;25.10;84.20;;;;;;5097427;28;20112;-88
2021/06/13 08:03:43;;;;;;;4.35;3.95;;;25.30;83.30;;;;;;5097155;28;20024;-87
2021/06/13 08:06:09;;;;;;;4.72;3.45;;;25.40;83.10;;;;;;5097282;28;20115;-91
2021/06/13 08:08:35;;;;;;;4.07;3.30;;;25.60;81.90;;;;;;5078686;28;20615;-90
2021/06/13 08:11:03;;;;;;;6.25;3.30;;;25.70;81.20;;;;;;5096245;28;20472;-91
2021/06/13 08:13:28;;;;;;;6.07;3.28;;;25.90;81.00;;;;;;5097528;28;20020;-90
2021/06/13 08:15:58;;;;;;;4.53;3.10;;;26.00;79.40;;;;;;5096497;28;20020;-89
2021/06/13 08:18:33;;;;;;;3.58;3.28;;;26.20;77.20;;;;;;5096309;28;20366;-91
2021/06/13 08:20:59;;;;;;;5.40;3.78;;;26.30;77.40;;;;;;5096278;28;20062;-90
2021/06/13 08:23:25;;;;;;;3.47;3.13;;;26.30;76.70;;;;;;5095565;28;20039;-90
2021/06/13 08:25:53;;;;;;;3.58;3.10;;;26.30;76.90;;;;;;5095671;28;20024;-88
2021/06/13 08:28:19;;;;;;;6.65;3.28;;;26.20;75.60;;;;;;5095778;28;20055;-88
2021/06/13 08:30:50;;;;;;;3.92;2.92;;;26.10;74.90;;;;;;5095959;28;20028;-90
2021/06/13 08:33:26;;;;;;;4.90;3.00;;;26.00;75.20;;;;;;5097395;28;20069;-90
2021/06/13 08:35:55;;;;;;;5.25;3.20;;;25.80;75.20;;;;;;5095966;28;20022;-90
2021/06/13 08:38:35;;;;;;;;;;;;;;;;;;;;;
2021/06/13 08:41:01;;;;;;;3.88;3.10;;;25.40;76.10;;;;;;5097982;28;20137;-95
2021/06/13 08:43:27;;;;;;;3.45;3.10;;;25.30;76.50;;;;;;5097673;28;20025;-96
2021/06/13 08:46:07;;;;;;;;;;;;;;;;;;;;;
2021/06/13 08:48:34;;;;;;;;;;;25.20;77.00;;;;;;5098217;28;20034;-89
2021/06/13 08:51:01;;;;;;;3.65;3.35;;;24.90;88.30;;;;;;5078722;28;19920;-91
2021/06/13 08:53:29;;;;;;;4.28;3.70;;;24.70;87.50;;;;;;5079325;28;20020;-94
2021/06/13 08:55:55;;;;;;;3.90;3.60;;;24.40;88.20;;;;;;5062572;28;20021;-94
2021/06/13 08:58:22;;;;;;;4.97;3.70;;;24.10;89.00;;;;;;5062615;28;20111;-96
2021/06/13 09:00:51;;;;;;;3.30;3.00;;;23.80;89.50;;;;;;5079112;28;20024;-94
2021/06/13 09:03:18;;;;;;;5.45;3.20;;;23.60;89.20;;;;;;5063383;28;20107;-95
2021/06/13 09:05:44;;;;;;;3.10;2.85;;;23.30;89.10;;;;;;5079659;28;20024;-95
2021/06/13 09:08:12;;;;;;;5.20;2.78;;;23.20;89.10;;;;;;5062431;28;20040;-96
2021/06/13 09:10:41;;;;;;;3.42;3.13;;;23.10;90.40;;;;;;5078845;28;20024;-95
2021/06/13 09:13:14;;;;;;;4.45;3.17;;;23.00;90.20;;;;;;5061793;28;20032;-95
2021/06/13 09:15:55;;;;;;;3.30;3.00;;;22.80;88.50;;;;;;5078291;28;20374;-95
2021/06/13 09:18:47;;;;;;;4.47;2.58;;;22.80;89.40;;;;;;5078386;28;20027;-94
2021/06/13 09:21:20;;;;;;;4.28;2.25;;;22.90;89.50;;;;;;5078723;28;20117;-96
2021/06/13 09:23:48;;;;;;;3.00;2.70;;;23.00;88.50;;;;;;5078396;28;20031;-96
2021/06/13 09:26:20;;;;;;;4.60;3.30;;;23.20;88.20;;;;;;5078755;28;20132;-95
2021/06/13 09:28:49;;;;;;;4.60;3.55;;;23.50;87.70;;;;;;5079719;28;20063;-95
2021/06/13 09:31:26;;;;;;;4.78;3.63;;;23.70;87.60;;;;;;5078347;28;20024;-96
2021/06/13 09:33:58;;;;;;;5.20;3.70;;;24.00;87.60;;;;;;5078266;28;20108;-96
2021/06/13 09:36:28;;;;;;;3.92;3.55;;;24.10;87.40;;;;;;5078457;28;20380;-96
2021/06/13 09:39:05;;;;;;;6.57;3.60;;;24.20;87.10;;;;;;5079311;28;20020;-96
2021/06/13 09:41:34;;;;;;;7.40;4.53;;;24.10;88.30;;;;;;5078471;28;20476;-95
2021/06/13 09:44:25;;;;;;;11.43;6.43;;;24.00;89.10;;;;;;5080135;28;20028;-96
2021/06/13 09:47:02;;;;;;;7.88;4.72;;;23.80;90.30;;;;;;5076190;28;20371;-95
2021/06/13 09:49:57;;;;;;;8.80;5.22;;;23.70;90.60;;;;;;5078894;28;20028;-96
2021/06/13 09:52:37;;;;;;;7.05;4.20;;;23.60;90.10;;;;;;5066923;28;20160;-94
2021/06/13 09:55:15;;;;;;;6.97;3.20;;;23.60;90.40;;;;;;5063580;28;20030;-95
2021/06/13 09:58:06;;;;;;;5.68;3.22;;;23.80;90.30;;;;;;5078087;28;20024;-94
2021/06/13 10:00:35;;;;;;;3.40;3.10;;;24.00;90.10;;;;;;5078269;28;20016;-96
2021/06/13 10:03:21;;;;;;;3.38;3.05;;;24.10;88.30;;;;;;5077997;28;20115;-91
2021/06/13 10:05:57;;;;;;;2.75;2.55;;;24.30;86.10;;;;;;5077468;28;20111;-93
2021/06/13 10:08:26;;;;;;;4.75;3.20;;;24.50;86.20;;;;;;5080740;28;20047;-94
2021/06/13 10:11:07;;;;;;;3.30;3.00;;;24.50;85.40;;;;;;5095937;28;20028;-96
2021/06/13 10:14:17;;;;;;;3.05;2.85;;;24.50;86.10;;;;;;5101004;28;20038;-96
2021/06/13 10:17:07;;;;;;;3.63;3.33;;;24.50;89.60;;;;;;5035416;28;20045;-96
2021/06/13 10:19:39;;;;;;;6.53;3.15;;;24.50;88.40;;;;;;5106752;28;20048;-96
2021/06/13 10:22:05;;;;;;;3.47;3.00;;;24.40;89.00;;;;;;5109584;28;20024;-95
2021/06/13 10:24:44;;;;;;;5.03;3.65;;;24.50;88.90;;;;;;5096961;28;20062;-96
2021/06/13 10:27:25;;;;;;;4.20;3.45;;;24.60;89.50;;;;;;5086564;28;20057;-96
2021/06/13 10:32:30;;;;;;;3.42;3.13;;;25.00;88.20;;;;;;5077919;28;20044;-95
2021/06/13 10:34:56;;;;;;;6.93;4.60;;;25.20;87.60;;;;;;5040325;28;20032;-96
2021/06/13 10:37:40;;;;;;;;;;;;;;;;;;;;;
2021/06/13 10:40:09;;;;;;;14.60;9.75;;;25.30;87.80;;;;;;5055109;28;20029;-92
2021/06/13 10:42:38;;;;;;;10.00;7.80;;;25.40;84.60;;;;;;5036693;28;20029;-92
2021/06/13 10:45:08;;;;;;;10.57;8.68;;;25.50;84.50;;;;;;5054468;28;20031;-92
2021/06/13 10:47:37;;;;;;;;;;;25.60;83.70;;;;;;5037264;28;20044;-93
2021/06/13 10:50:13;;;;;;;4.35;3.60;;;25.60;81.90;;;;;;5023504;28;19916;-90
2021/06/13 10:53:01;;;;;;;3.55;2.75;;;25.40;78.70;;;;;;5074392;28;20111;-90
2021/06/13 10:55:46;;;;;;;3.10;2.90;;;25.40;78.80;;;;;;5073269;28;20024;-91
2021/06/13 10:58:31;;;;;;;4.75;3.60;;;25.50;81.50;;;;;;5073090;28;20115;-91
2021/06/13 11:01:31;;;;;;;4.43;2.90;;;25.50;81.00;;;;;;5073160;28;20028;-90
2021/06/13 11:04:05;;;;;;;3.40;3.10;;;25.90;80.60;;;;;;5073861;28;20017;-89
2021/06/13 11:06:40;;;;;;;3.20;2.90;;;25.90;78.70;;;;;;5071936;28;20028;-90
2021/06/13 11:09:13;;;;;;;3.08;2.70;;;26.00;78.40;;;;;;5074092;28;20025;-90
2021/06/13 11:11:42;;;;;;;3.05;2.55;;;26.10;78.50;;;;;;5073046;28;20029;-89
2021/06/13 11:14:26;;;;;;;6.93;2.80;;;26.00;76.60;;;;;;5074169;28;20096;-91
2021/06/13 11:16:54;;;;;;;6.60;2.30;;;26.10;78.00;;;;;;5073079;28;20504;-90
2021/06/13 11:19:34;;;;;;;2.55;2.35;;;26.20;76.80;;;;;;5073115;28;20020;-90
2021/06/13 11:22:18;;;;;;;42.17;4.22;;;26.40;74.80;;;;;;5073237;28;20032;-91
2021/06/13 11:24:49;;;;;;;12.25;9.75;;;26.60;74.80;;;;;;5075630;28;20071;-90
2021/06/13 11:27:15;;;;;;;19.00;15.45;;;26.60;75.60;;;;;;5075691;28;20021;-91
2021/06/13 11:29:53;;;;;;;10.88;7.57;;;26.70;76.20;;;;;;5077812;28;20032;-89
2021/06/13 11:32:52;;;;;;;19.13;12.80;;;26.50;77.00;;;;;;5076285;28;20098;-86
2021/06/13 11:35:34;;;;;;;8.68;4.90;;;25.30;82.30;;;;;;5076225;28;20024;-86
2021/06/13 11:38:12;;;;;;;6.47;4.80;;;24.60;85.40;;;;;;5077323;28;20036;-88
2021/06/13 11:41:04;;;;;;;7.68;4.47;;;24.30;86.20;;;;;;5059968;28;20024;-90
2021/06/13 11:43:45;;;;;;;4.28;3.85;;;24.20;88.40;;;;;;5059971;28;20031;-89
2021/06/13 11:46:13;;;;;;;5.35;4.20;;;24.30;88.20;;;;;;5059692;28;20120;-86
2021/06/13 11:49:02;;;;;;;4.30;3.90;;;24.30;88.10;;;;;;5077115;28;20082;-86
2021/06/13 11:51:36;;;;;;;5.90;4.45;;;23.90;87.40;;;;;;5077159;28;20035;-87
2021/06/13 11:54:05;;;;;;;4.78;3.60;;;23.70;88.80;;;;;;5043986;28;20048;-90
2021/06/13 11:56:39;;;;;;;3.80;3.40;;;23.50;89.70;;;;;;5059407;28;20035;-89
2021/06/13 11:59:17;;;;;;;15.02;3.63;;;23.30;90.00;;;;;;5059551;28;20056;-89
2021/06/13 12:01:51;;;;;;;12.95;3.60;;;23.10;92.60;;;;;;5059422;28;20089;-85
2021/06/13 12:04:22;;;;;;;3.95;3.50;;;22.40;95.70;;;;;;5076670;28;20478;-85
2021/06/13 12:06:51;;;;;;;17.17;4.75;;;21.20;99.90;;;;;;5059095;28;20058;-87
2021/06/13 12:09:19;;;;;;;8.38;4.20;;;20.50;99.90;;;;;;5076723;28;20024;-86
2021/06/13 12:11:49;;;;;;;11.55;5.38;;;20.30;99.90;;;;;;5069227;28;20029;-86
2021/06/13 12:14:39;;;;;;;4.72;3.67;;;20.10;99.90;;;;;;5075932;28;20430;-87
2021/06/13 12:17:17;;;;;;;5.47;3.80;;;20.10;99.90;;;;;;5075470;28;20105;-88
2021/06/13 12:19:55;;;;;;;4.20;3.80;;;20.10;99.90;;;;;;5076019;28;20032;-89
2021/06/13 12:27:40;;;;;;;6.03;5.43;;;20.00;99.90;;;;;;5076587;28;20526;-88
2021/06/13 12:30:18;;;;;;;10.25;5.90;;;20.00;99.90;;;;;;5075536;28;20040;-89
2021/06/13 12:33:00;;;;;;;6.15;5.55;;;20.10;99.90;;;;;;5075531;28;20048;-89
2021/06/13 12:35:30;;;;;;;5.75;5.13;;;20.30;99.90;;;;;;5074677;28;20029;-89
2021/06/13 12:38:14;;;;;;;;;;;20.70;99.90;;;;;;5075781;28;20103;-89
2021/06/13 12:40:55;;;;;;;5.53;5.03;;;20.90;99.90;;;;;;5074300;28;19911;-90
2021/06/13 12:43:35;;;;;;;6.63;5.47;;;20.90;99.90;;;;;;5075454;28;20025;-90
2021/06/13 12:46:02;;;;;;;7.80;6.45;;;20.90;99.90;;;;;;5076640;28;20024;-89
2021/06/13 12:48:28;;;;;;;9.63;6.57;;;20.70;99.90;;;;;;5074323;28;20033;-89
2021/06/13 12:50:54;;;;;;;7.70;6.00;;;20.70;99.90;;;;;;5075092;28;20047;-89
2021/06/13 12:53:48;;;;;;;18.33;6.72;;;20.60;99.90;;;;;;5076797;28;20020;-89
2021/06/13 12:56:23;;;;;;;12.13;7.03;;;20.50;99.90;;;;;;5075442;28;20473;-90
2021/06/13 12:58:51;;;;;;;10.63;8.63;;;20.60;99.90;;;;;;5075350;28;20048;-89
2021/06/13 13:01:17;;;;;;;7.72;6.93;;;20.60;99.90;;;;;;5076911;28;20020;-90
2021/06/13 13:03:47;;;;;;;6.78;6.10;;;20.60;99.90;;;;;;5075331;28;20028;-90
2021/06/13 13:06:13;;;;;;;7.45;6.75;;;20.60;99.90;;;;;;5075198;28;20028;-90
2021/06/13 13:08:44;;;;;;;13.68;9.10;;;20.40;99.90;;;;;;5074950;28;20105;-89
2021/06/13 13:11:19;;;;;;;20.98;13.07;;;20.40;99.90;;;;;;5075060;28;20025;-91
2021/06/13 13:13:54;;;;;;;49.92;17.80;;;20.20;99.90;;;;;;5076446;28;20023;-90
2021/06/13 13:16:41;;;;;;;56.97;18.75;;;20.00;99.90;;;;;;5074357;28;20039;-93
2021/06/13 13:19:28;;;;;;;37.72;14.77;;;19.80;99.90;;;;;;5074693;28;20031;-93
2021/06/13 13:21:54;;;;;;;41.83;15.65;;;19.70;99.90;;;;;;5074672;28;20055;-94